Alamo, Nevada
Current Conditions -  °F | °C
As of 11:58 PM on Thursday 30 Oct 2014 (Local Time) from KINS Reporting Station
Overcast Overcast  
Wind Chill: 61°   Ceiling: 18000
Heat Index: 61°   Visibility: 10mi
Dew Point: 21°   Wind: 10mph
Humidity: 22%   Direction: 250°WSW
Pressure: 29.99"   Gusts: NA
Location:  37.36°N, 115.16°W
Report Text: KINS 310658Z AUTO 25009KT 10SM OVC180 16/M06 A2999 RMK AO2 SLP121 T01591062 $
Loading
Personal Weather Stations






























Interactive Weather Map
Tropical Storm Tracking
New forecast layout! Learn more

10-Day Weather Forecast

Advertisements
Track Severe Weather on mobile